PGUA/UAM METAR and TAF weather

Enter ICAO airport designator
Station Type Date Time Source
PGUA METAR 2019/08/25 02:57 UTC NOAA

PGUA 250257Z 17014G19KT 10SM BKN014 BKN033 BKN180 30/25 A2980 RMK AO2A SLP082 60000 T03020250 58009 PNO $


Station Type Date Time Source
PGUA Decoded METAR 2019/08/25 02:57 UTC NOAA

Station name not available
Aug 24, 2019 - 10:57 PM EDT / 2019.08.25 0257 UTC
Wind: from the S (170 degrees) at 16 MPH (14 KT) gusting to 22 MPH (19 KT):0
Visibility: 10 mile(s):0
Sky conditions: mostly cloudy
Temperature: 86.4 F (30.2 C)
Heat index: 97.5 F (36.4 C):1
Dew Point: 77.0 F (25.0 C)
Relative Humidity: 73%
Pressure (altimeter): 29.8 in. Hg (1009 hPa)
Pressure tendency: 0.03 inches (0.9 hPa) lower than three hours ago
ob: PGUA 250257Z 17014G19KT 10SM BKN014 BKN033 BKN180 30/25 A2980 RMK AO2A SLP082 60000 T03020250 58009 PNO
cycle: 3

Station Type Date Time Source
PGUA TAF 2019/08/25 02:26 UTC NOAA

TAF PGUA 250200Z 2502/2608 17012KT 9999 BKN016 BKN160 QNH2975INS
TEMPO 2502/2506 17015G20KT
TEMPO 2512/2518 17015G20KT 8000 -SHRA TX29/2503Z TN25/2518Z

Example: see airport list